• Join FlightAware (Why Join?)
  • Login
  • US Flag GB Flag 
11:41 EDT


 

Airport Tracker/Info


-or-


 

Live Flight TrackerFlight Track Log ✈ FLG4238 ✈ 25-Jul-2013 ✈ KCVG - KGRR

Flight Track Log - Related Links

Times and Time Zones

All times are in EDT time to prevent confusion due to time zone crossing. See the FLG4238 flight status page for this flight to view local times or setup timezone preferences in your user account.

Time Position Orientation Groundspeed Altitude Reporting Facility
EDT Latitude Longitude Course Direction KTS MPH feet Rate Location/Type
20:25 39.0500 -84.6833 343° North 156 180 1,300  Level Cincinnati TRACON
20:26 39.0500 -84.7167 270° West 157 181 2,500 1,440 Climbing Cincinnati TRACON
20:27 39.0500 -84.8000 270° West 274 315 3,800 2,160 Climbing Cincinnati TRACON
20:28 39.0667 -84.9000 282° West 280 322 6,900 2,820 Climbing Cincinnati TRACON
20:29 39.1403 -84.9239 346° North 287 330 9,600 2,100 Climbing Indianapolis Center
20:30 39.2203 -84.9422 350° North 292 336 11,200 1,260 Climbing Indianapolis Center
20:31 39.2522 -84.9442 343° North  Level FlightAware Approximate
20:31 39.3156 -84.9569 353° North 337 388 12,200  Level Indianapolis Center
20:32 39.4214 -84.9725 354° North 373 429 13,200 1,020 Climbing Indianapolis Center
20:33 39.5322 -84.9897 353° North 398 458 14,300 1,140 Climbing Indianapolis Center
20:34 39.6439 -85.0072 353° North 405 466 15,600 1,380 Climbing Indianapolis Center
20:35 39.7767 -85.0269 353° North 404 465 17,200 1,320 Climbing Indianapolis Center
20:36 39.8861 -85.0436 353° North 399 459 18,400 1,260 Climbing Indianapolis Center
20:37 39.9931 -85.0606 353° North 392 451 19,800 1,260 Climbing Indianapolis Center
20:38 40.0994 -85.0764 354° North 387 445 21,100 1,020 Climbing Indianapolis Center
20:39 40.2061 -85.0922 354° North 386 444 22,000 420 Climbing Indianapolis Center
20:40 40.3161 -85.1103 353° North 397 457 22,000  Level Indianapolis Center
20:41 40.4569 -85.1322 353° North 423 487 22,000  Level Indianapolis Center
20:42 40.5772 -85.1489 354° North 435 501 22,000  Level Indianapolis Center
20:43 40.6986 -85.1686 353° North 440 506 22,000  Level Indianapolis Center
20:44 40.8183 -85.1853 354° North 436 502 22,000  Level Indianapolis Center
20:45 40.9367 -85.2064 352° North 431 496 22,000  Level Indianapolis Center
20:46 41.0553 -85.2228 354° North 430 495 22,000  Level Indianapolis Center
20:48 41.1978 -85.2461 353° North 431 496 22,000  Level Indianapolis Center
20:49 41.3167 -85.2656 353° North 432 497 22,000  Level Indianapolis Center
20:49 41.3783 -85.2742 354° North 435 501 22,000  Level Chicago Center
20:50 41.4967 -85.2942 353° North 432 497 22,000  Level Chicago Center
20:51 41.6136 -85.3111 354° North 434 499 22,000 -300 Level Chicago Center
20:52 41.7542 -85.3358 353° North 440 506 21,400 -1,260 Descending Chicago Center
20:53 41.8708 -85.3553 353° North 428 493 19,400 -1,860 Descending Chicago Center
20:54 41.9869 -85.3753 353° North 425 489 17,600 -1,920 Descending Chicago Center
20:55 42.1061 -85.3953 353° North 418 481 15,500 -2,040 Descending Chicago Center
20:56 42.2169 -85.4136 353° North 405 466 13,500 -1,980 Descending Chicago Center
20:57 42.3244 -85.4297 354° North 393 452 11,500 -1,740 Descending Chicago Center
20:58 42.4167 -85.4453 353° North 336 387 10,000 -1,440 Descending Chicago Center
20:59 42.5067 -85.4419 North 278 320 8,600 -1,800 Descending Chicago Center
21:00 42.5819 -85.4217 11° North 275 316 6,300 -2,100 Descending Chicago Center
21:01 42.6586 -85.4044 North 280 322 4,300 -1,140 Descending Chicago Center
21:02 42.7328 -85.3847 11° North 275 316 4,000 -300 Descending Chicago Center